Northsea Pioneer — 9HA3784 — position and weather

sailwx.info

Track history (hours):
 
Tides and Currents Weather Stations Pressure Air Temp Water Temp Dewpoint Dewpoint Depression Visibility Wind Speed Wind Dir Waves Ship Positions

Northsea Pioneer

Last reported at 2017-Oct-20 01:10 UTC. Time now 2017-Oct-22 21:19 UTC.
Position N 36°53' E 013°45'.

Length 122 m; draft 5 m.

Type: Ship (hazmat cat B). MMSI: 229998000.

Date/timePositionNaut miles runAvg speedWind from/ knotsBaromVisibWave heightAir tempDewpointWater temp
2017-Oct-20 01:10N 36°53' E 013°45'210.7
2017-Oct-20 00:59N 36°52' E 013°48'510.7
2017-Oct-20 00:31N 36°50' E 013°54'510.7
2017-Oct-20 00:01N 36°49' E 014°00'510.7
2017-Oct-19 23:30N 36°47' E 014°06'510.8
2017-Oct-19 23:00N 36°45' E 014°13'611.0
2017-Oct-19 22:30N 36°43' E 014°19'611.4
2017-Oct-19 22:01N 36°41' E 014°26'611.7
2017-Oct-19 21:30N 36°39' E 014°33'611.5
2017-Oct-19 20:59N 36°37' E 014°40'  
Track history (hours):
 
Tides and Currents Weather Stations Pressure Air Temp Water Temp Dewpoint Dewpoint Depression Visibility Wind Speed Wind Dir Waves Ship Positions

Northsea Pioneer

Last reported at 2017-Oct-20 01:10 UTC. Time now 2017-Oct-22 21:19 UTC.
Position N 36°53' E 013°45'.

Length 122 m; draft 5 m.

Type: Ship (hazmat cat B). MMSI: 229998000.

Date/timePositionNaut miles runAvg speedWind from/ knotsBaromVisibWave heightAir tempDewpointWater temp
2017-Oct-20 01:10N 36°53' E 013°45'210.7
2017-Oct-20 00:59N 36°52' E 013°48'510.7
2017-Oct-20 00:31N 36°50' E 013°54'510.7
2017-Oct-20 00:01N 36°49' E 014°00'510.7
2017-Oct-19 23:30N 36°47' E 014°06'510.8
2017-Oct-19 23:00N 36°45' E 014°13'611.0
2017-Oct-19 22:30N 36°43' E 014°19'611.4
2017-Oct-19 22:01N 36°41' E 014°26'611.7
2017-Oct-19 21:30N 36°39' E 014°33'611.5
2017-Oct-19 20:59N 36°37' E 014°40'  

Dump ship's entire track history